Terminal Aerodrome Forecast
Issued by NWS

Home | Current Version | Previous Version | Graphics & Text | Print | Product List | Glossary On
Versions: 1 2 3 4 5 6 7 8 9 10 11 12 13 14 15 16
284
FTUS43 KUNR 271124
TAFGCC
TAF
KGCC 271124Z 2712/2812 20011KT P6SM BKN150
     FM272200 03006KT P6SM BKN040
     FM280200 02007KT 5SM -SN BKN022
     FM280500 01009KT 2SM -SN OVC009=

USA.gov is the U.S. government's official web portal to all federal, state and local government web resources and services.